Time;durP1;ratioP1;P1;durP2;ratioP2;P2;SDS_P1;SDS_P2;PMS_P1;PMS_P2;Temp;Humidity;BMP_temperature;BMP_pressure;BME280_temperature;BME280_humidity;BME280_pressure;Samples;Min_cycle;Max_cycle;Signal;HPM_P1;HPM_P2
2021/01/28 00:00:36;;;;;;;13.13;8.15;;;3.00;99.90;;;;;;5064673;28;20020;-73
2021/01/28 00:03:03;;;;;;;13.85;8.77;;;3.00;99.90;;;;;;5071743;28;20449;-73
2021/01/28 00:05:31;;;;;;;14.40;8.77;;;3.00;99.90;;;;;;5072110;28;20465;-73
2021/01/28 00:08:00;;;;;;;14.93;9.07;;;3.00;99.90;;;;;;5058701;28;20028;-73
2021/01/28 00:10:27;;;;;;;15.60;9.50;;;2.90;99.90;;;;;;5064570;28;20039;-73
2021/01/28 00:12:52;;;;;;;13.07;8.45;;;3.00;99.90;;;;;;5074259;28;20047;-72
2021/01/28 00:15:23;;;;;;;17.30;9.77;;;2.90;99.90;;;;;;5073001;28;20628;-72
2021/01/28 00:17:48;;;;;;;15.98;9.88;;;2.90;99.90;;;;;;5074066;28;20024;-72
2021/01/28 00:20:34;;;;;;;18.55;10.95;;;2.90;99.90;;;;;;5073049;28;20036;-72
2021/01/28 00:23:02;;;;;;;17.08;10.77;;;2.90;99.90;;;;;;5068504;28;20115;-72
2021/01/28 00:25:30;;;;;;;18.98;11.68;;;2.90;99.90;;;;;;5073557;28;20040;-72
2021/01/28 00:27:56;;;;;;;20.50;11.52;;;2.90;99.90;;;;;;5085931;28;20059;-72
2021/01/28 00:30:26;;;;;;;16.95;10.88;;;2.80;99.90;;;;;;5084398;28;20031;-72
2021/01/28 00:32:54;;;;;;;17.10;10.25;;;2.90;99.90;;;;;;5072616;28;20028;-72
2021/01/28 00:35:31;;;;;;;18.45;11.57;;;2.90;99.90;;;;;;5071724;28;20147;-72
2021/01/28 00:37:59;;;;;;;19.55;12.32;;;2.80;99.90;;;;;;5066232;28;20443;-72
2021/01/28 00:40:26;;;;;;;18.90;12.18;;;2.80;99.90;;;;;;5069997;28;20082;-72
2021/01/28 00:42:54;;;;;;;21.50;13.23;;;2.80;99.90;;;;;;5084924;28;20028;-72
2021/01/28 00:45:23;;;;;;;21.95;12.48;;;2.80;99.90;;;;;;5088153;28;20033;-72
2021/01/28 00:47:48;;;;;;;21.50;13.02;;;2.80;99.90;;;;;;5086155;28;20020;-72
2021/01/28 00:50:15;;;;;;;24.63;13.60;;;2.80;99.90;;;;;;5077913;28;20032;-72
2021/01/28 00:52:45;;;;;;;21.48;13.00;;;2.80;99.90;;;;;;5083913;28;20393;-73
2021/01/28 00:55:12;;;;;;;24.38;14.35;;;2.80;99.90;;;;;;5053342;28;20077;-72
2021/01/28 00:57:37;;;;;;;18.88;12.07;;;2.80;99.90;;;;;;5092902;28;20484;-72
2021/01/28 01:00:13;;;;;;;20.77;13.05;;;2.80;99.90;;;;;;5089074;28;20025;-72
2021/01/28 01:02:45;;;;;;;21.42;12.88;;;2.80;99.90;;;;;;5085151;28;20522;-72
2021/01/28 01:05:15;;;;;;;23.35;13.55;;;2.80;99.90;;;;;;5076106;28;20035;-72
2021/01/28 01:07:44;;;;;;;21.52;13.40;;;2.80;99.90;;;;;;5076934;28;20036;-72
2021/01/28 01:10:11;;;;;;;20.92;13.02;;;2.80;99.90;;;;;;5072149;28;20051;-73
2021/01/28 01:12:39;;;;;;;19.35;12.35;;;2.80;99.90;;;;;;5071865;28;20117;-72
2021/01/28 01:15:09;;;;;;;21.75;12.73;;;2.80;99.90;;;;;;5073533;28;21889;-72
2021/01/28 01:17:37;;;;;;;18.73;10.90;;;2.80;99.90;;;;;;5076452;28;20539;-72
2021/01/28 01:20:03;;;;;;;19.35;11.13;;;2.80;99.90;;;;;;5077113;28;20495;-72
2021/01/28 01:22:29;;;;;;;18.58;10.90;;;2.80;99.90;;;;;;5076396;28;20024;-72
2021/01/28 01:24:57;;;;;;;18.33;11.43;;;2.80;99.90;;;;;;5077541;28;20035;-72
2021/01/28 01:27:25;;;;;;;18.27;11.13;;;2.90;99.90;;;;;;5075363;28;20181;-72
2021/01/28 01:29:55;;;;;;;19.42;12.32;;;2.80;99.90;;;;;;5076018;28;20633;-71
2021/01/28 01:32:23;;;;;;;20.77;12.02;;;2.90;99.90;;;;;;5074021;28;20614;-72
2021/01/28 01:34:48;;;;;;;22.92;12.45;;;2.90;99.90;;;;;;5074600;28;20098;-72
2021/01/28 01:37:16;;;;;;;20.42;11.95;;;2.80;99.90;;;;;;5076707;28;20093;-71
2021/01/28 01:39:42;;;;;;;19.77;11.95;;;2.90;99.90;;;;;;5075725;28;20109;-72
2021/01/28 01:42:12;;;;;;;20.90;11.98;;;2.90;99.90;;;;;;5076546;28;20032;-71
2021/01/28 01:44:39;;;;;;;21.17;11.82;;;2.90;99.90;;;;;;5075460;28;20034;-71
2021/01/28 01:47:24;;;;;;;21.92;12.95;;;2.90;99.90;;;;;;5088374;28;20171;-71
2021/01/28 01:49:50;;;;;;;23.90;12.77;;;2.90;99.90;;;;;;5089923;28;20024;-72
2021/01/28 01:52:15;;;;;;;27.05;13.45;;;2.80;99.90;;;;;;5077163;28;20044;-71
2021/01/28 01:54:47;;;;;;;23.75;13.48;;;2.80;99.90;;;;;;5074372;28;20035;-71
2021/01/28 01:57:18;;;;;;;22.95;12.63;;;2.80;99.90;;;;;;5063783;28;20026;-71
2021/01/28 01:59:56;;;;;;;26.58;13.80;;;2.80;99.90;;;;;;5090027;28;20016;-72
2021/01/28 02:02:24;;;;;;;22.17;12.98;;;2.80;99.90;;;;;;5089740;28;20526;-71
2021/01/28 02:04:57;;;;;;;21.33;12.88;;;2.80;99.90;;;;;;5059051;28;20039;-71
2021/01/28 02:07:26;;;;;;;25.60;14.07;;;2.80;99.90;;;;;;5092635;28;20031;-72
2021/01/28 02:09:52;;;;;;;28.27;13.55;;;2.80;99.90;;;;;;5091266;28;20055;-71
2021/01/28 02:12:18;;;;;;;27.17;14.30;;;2.80;99.90;;;;;;5080827;28;20031;-71
2021/01/28 02:14:50;;;;;;;27.70;12.90;;;2.90;99.90;;;;;;5074685;28;20078;-72
2021/01/28 02:17:21;;;;;;;25.00;13.90;;;2.80;99.90;;;;;;5074298;28;20115;-71
2021/01/28 02:19:52;;;;;;;30.35;14.82;;;2.90;99.90;;;;;;5060346;28;20037;-72
2021/01/28 02:22:31;;;;;;;26.52;13.82;;;2.80;99.90;;;;;;5076675;28;20027;-71
2021/01/28 02:25:18;;;;;;;31.88;14.60;;;2.80;99.90;;;;;;5089292;28;20033;-72
2021/01/28 02:27:43;;;;;;;28.17;14.30;;;2.80;99.90;;;;;;5076201;28;20041;-71
2021/01/28 02:30:17;;;;;;;36.92;15.43;;;2.80;99.90;;;;;;5068280;28;20031;-72
2021/01/28 02:32:47;;;;;;;28.85;13.23;;;2.70;99.90;;;;;;5087400;28;20043;-72
2021/01/28 02:35:15;;;;;;;31.98;14.95;;;2.70;99.90;;;;;;5075399;28;20037;-72
2021/01/28 02:37:41;;;;;;;30.27;14.98;;;2.70;99.90;;;;;;5076200;28;20056;-71
2021/01/28 02:40:08;;;;;;;29.17;13.98;;;2.70;99.90;;;;;;5075022;28;20036;-71
2021/01/28 02:42:34;;;;;;;39.28;16.00;;;2.80;99.90;;;;;;5075061;28;20059;-72
2021/01/28 02:45:00;;;;;;;26.25;13.90;;;2.80;99.90;;;;;;5061645;28;20024;-71
2021/01/28 02:47:26;;;;;;;26.88;13.88;;;2.90;99.90;;;;;;5069777;28;20036;-72
2021/01/28 02:49:52;;;;;;;25.55;13.13;;;2.80;99.90;;;;;;5081022;28;20066;-72
2021/01/28 02:52:18;;;;;;;29.58;13.95;;;2.90;99.90;;;;;;5089135;28;20559;-72
2021/01/28 02:54:49;;;;;;;32.17;15.43;;;2.80;99.90;;;;;;5082670;28;20051;-71
2021/01/28 02:57:17;;;;;;;30.77;14.17;;;2.80;99.90;;;;;;5085331;28;20026;-72
2021/01/28 02:59:43;;;;;;;34.60;14.60;;;2.90;99.90;;;;;;5088211;28;20020;-72
2021/01/28 03:02:16;;;;;;;43.42;16.35;;;2.90;99.90;;;;;;5089185;28;20035;-72
2021/01/28 03:04:44;;;;;;;75.40;17.38;;;2.90;99.90;;;;;;5076454;28;20119;-72
2021/01/28 03:07:13;;;;;;;39.20;15.70;;;2.90;99.90;;;;;;5075831;28;20069;-72
2021/01/28 03:09:39;;;;;;;43.75;16.50;;;2.80;99.90;;;;;;5087801;28;20097;-72
2021/01/28 03:12:12;;;;;;;36.28;15.85;;;2.80;99.90;;;;;;5078422;28;20028;-72
2021/01/28 03:14:38;;;;;;;30.50;14.77;;;2.80;99.90;;;;;;5086549;28;20024;-72
2021/01/28 03:17:04;;;;;;;32.97;15.32;;;2.80;99.90;;;;;;5091696;28;20025;-72
2021/01/28 03:19:30;;;;;;;29.92;14.63;;;2.80;99.90;;;;;;5085589;28;20025;-72
2021/01/28 03:21:58;;;;;;;38.50;14.65;;;2.90;99.90;;;;;;5082920;28;20032;-72
2021/01/28 03:24:26;;;;;;;28.02;13.57;;;2.90;99.90;;;;;;5074391;28;20115;-72
2021/01/28 03:26:54;;;;;;;29.67;14.50;;;2.90;99.90;;;;;;5075096;28;20113;-72
2021/01/28 03:29:22;;;;;;;32.05;13.68;;;2.90;99.90;;;;;;5069051;28;20037;-72
2021/01/28 03:31:50;;;;;;;31.27;13.48;;;2.90;99.90;;;;;;5060463;28;20424;-72
2021/01/28 03:34:18;;;;;;;33.42;14.90;;;2.90;99.90;;;;;;5072409;28;20024;-72
2021/01/28 03:36:46;;;;;;;32.13;14.70;;;2.90;99.90;;;;;;5073850;28;20097;-72
2021/01/28 03:39:12;;;;;;;33.03;14.50;;;3.00;99.90;;;;;;5086074;28;20043;-73
2021/01/28 03:41:40;;;;;;;23.75;12.48;;;3.00;99.90;;;;;;5087806;28;20418;-72
2021/01/28 03:44:06;;;;;;;30.30;13.82;;;3.00;99.90;;;;;;5075219;28;20067;-72
2021/01/28 03:46:34;;;;;;;22.65;12.68;;;3.00;99.90;;;;;;5075913;28;20118;-72
2021/01/28 03:49:02;;;;;;;24.00;12.77;;;3.00;99.90;;;;;;5073290;28;20102;-72
2021/01/28 03:51:28;;;;;;;25.10;12.55;;;3.00;99.90;;;;;;5073656;28;20028;-72
2021/01/28 03:53:54;;;;;;;30.15;12.60;;;3.10;99.90;;;;;;5075557;28;20043;-72
2021/01/28 03:56:22;;;;;;;22.73;11.13;;;3.10;99.90;;;;;;5073744;28;20594;-72
2021/01/28 03:58:50;;;;;;;23.63;10.98;;;3.10;99.90;;;;;;5068421;28;20962;-72
2021/01/28 04:01:18;;;;;;;27.48;13.18;;;3.10;99.90;;;;;;5056156;28;20042;-73
2021/01/28 04:03:43;;;;;;;30.95;12.93;;;3.00;99.90;;;;;;5082327;28;20130;-72
2021/01/28 04:06:12;;;;;;;34.75;12.77;;;3.10;99.90;;;;;;5087546;28;20519;-72
2021/01/28 04:08:40;;;;;;;24.73;11.80;;;3.10;99.90;;;;;;5078202;28;20059;-72
2021/01/28 04:11:09;;;;;;;23.27;11.63;;;3.10;99.90;;;;;;5074330;28;20048;-72
2021/01/28 04:13:37;;;;;;;39.42;12.60;;;3.10;99.90;;;;;;5073109;28;20093;-72
2021/01/28 04:16:05;;;;;;;48.15;13.27;;;3.10;99.90;;;;;;5089119;28;20040;-72
2021/01/28 04:18:33;;;;;;;28.55;12.10;;;3.10;99.90;;;;;;5075412;28;20032;-72
2021/01/28 04:21:01;;;;;;;27.73;11.73;;;3.10;99.90;;;;;;5073711;28;20028;-72
2021/01/28 04:23:27;;;;;;;30.38;12.77;;;3.10;99.90;;;;;;5067973;28;20089;-72
2021/01/28 04:25:52;;;;;;;28.20;12.27;;;3.10;99.90;;;;;;5057795;28;20035;-72
2021/01/28 04:28:18;;;;;;;29.02;11.65;;;3.10;99.90;;;;;;5074763;28;20028;-72
2021/01/28 04:30:44;;;;;;;51.13;13.25;;;3.10;99.90;;;;;;5073322;28;20028;-72
2021/01/28 04:33:09;;;;;;;28.38;12.23;;;3.10;99.90;;;;;;5073238;28;20613;-72
2021/01/28 04:35:35;;;;;;;32.38;13.75;;;3.10;99.90;;;;;;5071673;28;20027;-72
2021/01/28 04:38:03;;;;;;;135.07;16.15;;;3.10;99.90;;;;;;5073453;28;20433;-72
2021/01/28 04:40:38;;;;;;;80.72;15.20;;;3.10;99.90;;;;;;5071934;28;20308;-72
2021/01/28 04:43:22;;;;;;;92.68;14.30;;;3.10;99.90;;;;;;5072974;28;20082;-72
2021/01/28 04:45:53;;;;;;;60.60;13.50;;;3.10;99.90;;;;;;5066709;28;20496;-72
2021/01/28 04:48:19;;;;;;;34.80;12.32;;;3.10;99.90;;;;;;5087098;28;20016;-72
2021/01/28 04:50:49;;;;;;;76.05;13.85;;;3.10;99.90;;;;;;5093730;28;20569;-72
2021/01/28 04:53:33;;;;;;;80.53;14.15;;;3.10;99.90;;;;;;5075385;28;20032;-72
2021/01/28 04:56:02;;;;;;;52.40;13.55;;;3.10;99.90;;;;;;5092285;28;20521;-72
2021/01/28 04:58:30;;;;;;;36.15;12.40;;;3.10;99.90;;;;;;5062603;28;20449;-72
2021/01/28 05:00:59;;;;;;;52.67;13.63;;;3.10;99.90;;;;;;5060927;28;20031;-72
2021/01/28 05:03:31;;;;;;;140.27;15.55;;;3.10;99.90;;;;;;5077332;28;20027;-72
2021/01/28 05:06:01;;;;;;;129.30;16.20;;;3.10;99.90;;;;;;5077192;28;20040;-72
2021/01/28 05:08:27;;;;;;;118.47;16.08;;;3.10;99.90;;;;;;5077075;28;20104;-72
2021/01/28 05:11:00;;;;;;;59.10;13.55;;;3.10;99.90;;;;;;5076245;28;20468;-72
2021/01/28 05:13:33;;;;;;;110.80;15.20;;;3.10;99.90;;;;;;5077306;28;20036;-72
2021/01/28 05:16:18;;;;;;;28.67;11.20;;;3.10;99.90;;;;;;5071801;28;20055;-72
2021/01/28 05:18:46;;;;;;;107.95;14.00;;;3.10;99.90;;;;;;5061364;28;20051;-72
2021/01/28 05:21:17;;;;;;;55.90;12.02;;;3.10;99.90;;;;;;5067602;28;20043;-72
2021/01/28 05:23:43;;;;;;;54.72;9.27;;;3.10;99.90;;;;;;5078155;28;20027;-72
2021/01/28 05:26:30;;;;;;;107.65;13.57;;;3.10;99.90;;;;;;5075644;28;20700;-73
2021/01/28 05:28:56;;;;;;;73.70;12.98;;;3.10;99.90;;;;;;5075640;28;20017;-72
2021/01/28 05:31:32;;;;;;;107.63;15.10;;;3.10;99.90;;;;;;5070747;28;20060;-72
2021/01/28 05:34:11;;;;;;;43.30;11.73;;;3.10;99.90;;;;;;5082327;28;20051;-72
2021/01/28 05:36:41;;;;;;;102.63;15.55;;;3.20;99.90;;;;;;5062336;28;20107;-72
2021/01/28 05:39:34;;;;;;;104.10;14.45;;;3.10;99.90;;;;;;5076352;28;20051;-72
2021/01/28 05:42:15;;;;;;;40.20;12.00;;;3.10;99.90;;;;;;5053166;28;20480;-72
2021/01/28 05:44:41;;;;;;;72.30;12.32;;;3.10;99.90;;;;;;5095630;28;20047;-71
2021/01/28 05:47:30;;;;;;;78.38;13.85;;;3.10;99.90;;;;;;5088465;28;20036;-72
2021/01/28 05:50:16;;;;;;;38.42;11.63;;;3.00;99.90;;;;;;5083554;28;20510;-72
2021/01/28 05:52:42;;;;;;;29.13;10.48;;;3.00;99.90;;;;;;5078111;28;20092;-72
2021/01/28 05:55:21;;;;;;;52.40;12.30;;;3.00;99.90;;;;;;5072381;28;20112;-71
2021/01/28 05:58:02;;;;;;;54.70;10.88;;;3.10;99.90;;;;;;5079290;28;20035;-72
2021/01/28 06:01:06;;;;;;;30.90;10.48;;;3.00;99.90;;;;;;5082454;28;20631;-71
2021/01/28 06:03:54;;;;;;;51.38;12.10;;;3.10;99.90;;;;;;5059557;28;20048;-71
2021/01/28 06:06:42;;;;;;;27.20;9.98;;;3.00;99.90;;;;;;5092393;28;20034;-71
2021/01/28 06:09:17;;;;;;;26.70;9.52;;;3.00;99.90;;;;;;5089780;28;20076;-71
2021/01/28 06:11:49;;;;;;;18.00;9.00;;;3.00;99.90;;;;;;5091622;28;20456;-71
2021/01/28 06:14:44;;;;;;;20.13;7.70;;;3.00;99.90;;;;;;5091309;28;20090;-71
2021/01/28 06:17:41;;;;;;;20.67;9.65;;;3.00;99.90;;;;;;5088273;28;20029;-72
2021/01/28 06:20:24;;;;;;;19.45;8.75;;;3.10;99.90;;;;;;5075217;28;20040;-72
2021/01/28 06:23:04;;;;;;;17.15;8.80;;;3.00;99.90;;;;;;5076986;28;20032;-72
2021/01/28 06:25:49;;;;;;;15.50;8.30;;;3.10;99.90;;;;;;5075445;28;20040;-72
2021/01/28 06:28:38;;;;;;;18.35;8.48;;;3.10;99.90;;;;;;5074571;28;20040;-71
2021/01/28 06:31:41;;;;;;;13.63;7.30;;;3.10;99.90;;;;;;5061378;28;20597;-72
2021/01/28 06:34:26;;;;;;;10.45;5.30;;;3.10;99.90;;;;;;5060415;28;20035;-71
2021/01/28 06:37:08;;;;;;;15.05;7.53;;;3.10;99.90;;;;;;5069309;28;20039;-71
2021/01/28 06:39:41;;;;;;;15.00;7.10;;;3.10;99.90;;;;;;5075348;28;20024;-71
2021/01/28 06:42:11;;;;;;;;;;;3.10;99.90;;;;;;5074902;28;20028;-73
2021/01/28 06:44:58;;;;;;;11.52;6.45;;;3.10;99.90;;;;;;5066340;28;19912;-73
2021/01/28 06:47:47;;;;;;;13.57;6.85;;;3.10;99.90;;;;;;5055417;28;20089;-72
2021/01/28 06:50:38;;;;;;;14.82;6.75;;;3.10;99.90;;;;;;5073938;28;20020;-73
2021/01/28 06:53:18;;;;;;;12.00;6.53;;;3.10;99.90;;;;;;5065563;28;20024;-72
2021/01/28 06:55:56;;;;;;;11.13;6.18;;;3.20;99.90;;;;;;5059912;28;20475;-72
2021/01/28 06:58:44;;;;;;;10.68;6.05;;;3.20;99.90;;;;;;5074531;28;20111;-72
2021/01/28 07:01:16;;;;;;;13.45;6.60;;;3.20;99.90;;;;;;5075172;28;20043;-72
2021/01/28 07:03:44;;;;;;;;;;;3.20;99.90;;;;;;5059249;28;20023;-71
2021/01/28 07:06:30;;;;;;;9.40;5.28;;;3.20;99.90;;;;;;5075124;28;20350;-71
2021/01/28 07:08:59;;;;;;;10.70;5.57;;;3.20;99.90;;;;;;5073568;28;20028;-72
2021/01/28 07:11:35;;;;;;;10.38;5.57;;;3.20;99.90;;;;;;5074575;28;20055;-72
2021/01/28 07:14:03;;;;;;;10.52;5.70;;;3.20;99.90;;;;;;5082427;28;20032;-72
2021/01/28 07:16:53;;;;;;;12.95;6.00;;;3.20;99.90;;;;;;5061699;28;20347;-73
2021/01/28 07:19:23;;;;;;;12.52;5.65;;;3.20;99.90;;;;;;5075932;28;20467;-72
2021/01/28 07:21:53;;;;;;;11.40;5.55;;;3.20;99.90;;;;;;5066747;28;20032;-71
2021/01/28 07:24:26;;;;;;;10.27;5.95;;;3.20;99.90;;;;;;5089942;28;20472;-71
2021/01/28 07:26:54;;;;;;;11.10;5.07;;;3.20;99.90;;;;;;5074662;28;20099;-71
2021/01/28 07:29:32;;;;;;;8.80;4.75;;;3.20;99.90;;;;;;5081642;28;20583;-72
2021/01/28 07:32:02;;;;;;;8.57;4.32;;;3.30;99.90;;;;;;5081922;28;20035;-71
2021/01/28 07:34:28;;;;;;;8.77;4.55;;;3.30;99.90;;;;;;5059865;28;20023;-72
2021/01/28 07:36:59;;;;;;;8.27;4.22;;;3.20;99.90;;;;;;5078446;28;20017;-71
2021/01/28 07:39:31;;;;;;;8.65;4.03;;;3.30;99.90;;;;;;5086045;28;20094;-71
2021/01/28 07:41:59;;;;;;;8.82;3.90;;;3.30;99.90;;;;;;5074962;28;20036;-71
2021/01/28 07:44:24;;;;;;;9.32;4.05;;;3.20;99.90;;;;;;5043274;28;20042;-71
2021/01/28 07:46:51;;;;;;;8.57;3.97;;;3.20;99.90;;;;;;5074723;28;20466;-71
2021/01/28 07:49:41;;;;;;;7.55;3.60;;;3.20;99.90;;;;;;5065144;28;20032;-71
2021/01/28 07:52:16;;;;;;;5.47;2.92;;;3.20;99.90;;;;;;5076463;28;20043;-71
2021/01/28 07:54:49;;;;;;;7.00;3.20;;;3.30;99.90;;;;;;5089824;28;20032;-72
2021/01/28 07:57:42;;;;;;;7.63;3.50;;;3.30;99.90;;;;;;5085433;28;20016;-71
2021/01/28 08:00:10;;;;;;;;;;;3.30;99.90;;;;;;5078127;28;20089;-72
2021/01/28 08:02:36;;;;;;;5.93;2.90;;;3.30;99.90;;;;;;5064249;28;19966;-72
2021/01/28 08:05:05;;;;;;;6.95;3.88;;;3.30;99.90;;;;;;5073199;28;20036;-72
2021/01/28 08:07:38;;;;;;;10.07;3.47;;;3.30;99.90;;;;;;5073700;28;20137;-72
2021/01/28 08:10:20;;;;;;;17.55;8.57;;;3.30;99.90;;;;;;5084657;28;20365;-72
2021/01/28 08:13:22;;;;;;;5.25;2.90;;;3.30;99.90;;;;;;5059542;28;20633;-72
2021/01/28 08:15:49;;;;;;;5.78;2.72;;;3.30;99.90;;;;;;5064518;28;20051;-72
2021/01/28 08:18:21;;;;;;;6.95;3.25;;;3.30;99.90;;;;;;5058840;28;20107;-72
2021/01/28 08:20:47;;;;;;;5.82;2.78;;;3.30;99.90;;;;;;5075380;28;20466;-72
2021/01/28 08:23:24;;;;;;;7.70;3.10;;;3.30;99.90;;;;;;5072869;28;20082;-72
2021/01/28 08:25:56;;;;;;;6.82;2.80;;;3.30;99.90;;;;;;5071059;28;20061;-72
2021/01/28 08:28:22;;;;;;;5.50;2.75;;;3.30;99.90;;;;;;5086537;28;20021;-72
2021/01/28 08:30:48;;;;;;;4.85;2.10;;;3.30;99.90;;;;;;5086597;28;20020;-72
2021/01/28 08:33:23;;;;;;;5.65;2.70;;;3.40;99.90;;;;;;5087306;28;20556;-72
2021/01/28 08:35:51;;;;;;;5.55;2.38;;;3.40;99.90;;;;;;5086391;28;20531;-72
2021/01/28 08:38:22;;;;;;;5.25;2.20;;;3.40;99.90;;;;;;5069559;28;20040;-73
2021/01/28 08:41:05;;;;;;;5.63;2.40;;;3.40;99.90;;;;;;5077269;28;20020;-73
2021/01/28 08:43:33;;;;;;;13.50;7.05;;;3.40;99.90;;;;;;5086242;28;20027;-72
2021/01/28 08:46:10;;;;;;;5.88;2.90;;;3.40;99.90;;;;;;5089371;28;20032;-73
2021/01/28 08:48:39;;;;;;;8.02;2.60;;;3.40;99.90;;;;;;5089702;28;20103;-73
2021/01/28 08:51:29;;;;;;;4.63;2.10;;;3.50;99.90;;;;;;5089816;28;20051;-73
2021/01/28 08:54:08;;;;;;;4.47;2.10;;;3.50;99.90;;;;;;5075366;28;20035;-73
2021/01/28 08:56:40;;;;;;;4.68;2.33;;;3.50;99.90;;;;;;5070057;28;20016;-74
2021/01/28 08:59:17;;;;;;;5.32;2.20;;;3.50;99.90;;;;;;5077452;28;20088;-73
2021/01/28 09:01:49;;;;;;;4.47;2.17;;;3.50;99.90;;;;;;5062681;28;20089;-73
2021/01/28 09:04:22;;;;;;;5.63;2.42;;;3.50;99.90;;;;;;5074656;28;20043;-73
2021/01/28 09:06:48;;;;;;;3.78;2.17;;;3.60;99.90;;;;;;5085617;28;20110;-72
2021/01/28 09:09:21;;;;;;;5.05;2.35;;;3.60;99.90;;;;;;5091289;28;20638;-72
2021/01/28 09:11:47;;;;;;;3.97;2.17;;;3.60;99.90;;;;;;5085347;28;20035;-74
2021/01/28 09:14:32;;;;;;;6.13;2.13;;;3.60;99.90;;;;;;5078527;28;20028;-73
2021/01/28 09:17:03;;;;;;;4.10;2.05;;;3.60;99.90;;;;;;5076433;28;20034;-73
2021/01/28 09:19:31;;;;;;;4.18;2.10;;;3.60;99.90;;;;;;5083433;28;20473;-74
2021/01/28 09:22:05;;;;;;;4.85;2.05;;;3.60;99.90;;;;;;5071246;28;20046;-72
2021/01/28 09:24:35;;;;;;;5.93;2.65;;;3.60;99.90;;;;;;5087822;28;20045;-73
2021/01/28 09:27:21;;;;;;;4.18;2.00;;;3.60;99.90;;;;;;5084389;28;20024;-75
2021/01/28 09:29:47;;;;;;;4.20;2.00;;;3.60;99.90;;;;;;5087100;28;20032;-73
2021/01/28 09:32:24;;;;;;;4.93;2.50;;;3.60;99.90;;;;;;5083157;28;20024;-72
2021/01/28 09:35:12;;;;;;;5.05;2.30;;;3.60;99.90;;;;;;5086632;28;20036;-72
2021/01/28 09:37:38;;;;;;;5.18;2.33;;;3.60;99.90;;;;;;5090845;28;20053;-72
2021/01/28 09:40:14;;;;;;;5.05;2.40;;;3.60;99.90;;;;;;5064834;28;20028;-73
2021/01/28 09:42:40;;;;;;;4.03;2.08;;;3.70;99.90;;;;;;5088682;28;20106;-73
2021/01/28 09:45:06;;;;;;;4.85;2.30;;;3.70;99.90;;;;;;5092489;28;20051;-72
2021/01/28 09:47:32;;;;;;;4.13;2.00;;;3.70;99.90;;;;;;5091487;28;20104;-73
2021/01/28 09:50:00;;;;;;;5.55;2.60;;;3.70;99.90;;;;;;5087185;28;20038;-73
2021/01/28 09:52:30;;;;;;;5.57;2.47;;;3.70;99.90;;;;;;5094703;28;20457;-72
2021/01/28 09:55:02;;;;;;;4.03;2.17;;;3.80;99.90;;;;;;5093019;28;20047;-73
2021/01/28 09:57:30;;;;;;;5.47;2.40;;;3.70;99.90;;;;;;5089662;28;20038;-73
2021/01/28 10:00:03;;;;;;;4.88;2.10;;;3.80;99.90;;;;;;5090509;28;20094;-73
2021/01/28 10:02:42;;;;;;;5.15;2.40;;;3.80;99.90;;;;;;5072452;28;20055;-73
2021/01/28 10:05:08;;;;;;;5.10;2.20;;;3.80;99.90;;;;;;5080216;28;20380;-73
2021/01/28 10:07:36;;;;;;;5.30;2.20;;;3.80;99.90;;;;;;5087758;28;20098;-73
2021/01/28 10:10:09;;;;;;;5.97;2.55;;;3.80;99.90;;;;;;5088690;28;20043;-73
2021/01/28 10:12:34;;;;;;;4.40;2.15;;;3.90;99.90;;;;;;5072917;28;20085;-73
2021/01/28 10:15:00;;;;;;;4.97;2.40;;;3.80;99.90;;;;;;5061789;28;20546;-73
2021/01/28 10:17:26;;;;;;;3.83;1.88;;;3.90;99.90;;;;;;5094446;28;20025;-72
2021/01/28 10:19:54;;;;;;;5.25;2.22;;;3.90;99.90;;;;;;5089744;28;20499;-77
2021/01/28 10:22:23;;;;;;;4.15;1.98;;;3.90;99.90;;;;;;5087055;28;20106;-75
2021/01/28 10:24:54;;;;;;;4.57;2.50;;;3.90;99.90;;;;;;5056330;28;20059;-74
2021/01/28 10:27:22;;;;;;;3.85;2.10;;;3.90;99.90;;;;;;5093368;28;20061;-75
2021/01/28 10:29:50;;;;;;;4.15;2.05;;;3.90;99.90;;;;;;5090790;28;20019;-75
2021/01/28 10:32:15;;;;;;;4.70;2.35;;;3.90;99.90;;;;;;5088010;28;20032;-76
2021/01/28 10:34:47;;;;;;;4.25;2.17;;;3.90;99.90;;;;;;5089483;28;20609;-75
2021/01/28 10:37:17;;;;;;;5.78;2.60;;;3.90;99.90;;;;;;5080582;28;20194;-72
2021/01/28 10:39:45;;;;;;;4.10;2.03;;;3.90;99.90;;;;;;5088530;28;20028;-76
2021/01/28 10:42:26;;;;;;;4.88;2.30;;;4.00;99.90;;;;;;5076567;28;20028;-76
2021/01/28 10:44:51;;;;;;;4.43;2.08;;;4.00;99.90;;;;;;5092069;28;20113;-73
2021/01/28 10:47:19;;;;;;;6.13;2.40;;;4.00;99.90;;;;;;5092245;28;20024;-73
2021/01/28 10:49:45;;;;;;;4.53;2.25;;;4.00;99.90;;;;;;5088577;28;20028;-73
2021/01/28 10:52:11;;;;;;;6.32;2.95;;;4.00;99.90;;;;;;5086188;28;20477;-73
2021/01/28 10:54:39;;;;;;;4.75;2.20;;;4.00;99.90;;;;;;5091393;28;20036;-73
2021/01/28 10:57:09;;;;;;;4.15;2.20;;;4.00;99.90;;;;;;5084162;28;20036;-73
2021/01/28 10:59:35;;;;;;;4.38;2.13;;;4.00;99.90;;;;;;5093949;28;20445;-73
2021/01/28 11:02:01;;;;;;;4.60;2.15;;;4.10;99.90;;;;;;5077620;28;20028;-73
2021/01/28 11:04:30;;;;;;;3.65;1.90;;;4.10;99.90;;;;;;5089955;28;20412;-73
2021/01/28 11:06:59;;;;;;;4.30;2.20;;;4.10;99.90;;;;;;5084935;28;20047;-73
2021/01/28 11:09:27;;;;;;;4.47;2.28;;;4.20;99.90;;;;;;5088550;28;20019;-73
2021/01/28 11:11:56;;;;;;;4.53;2.15;;;4.10;99.90;;;;;;5085434;28;20024;-73
2021/01/28 11:14:27;;;;;;;3.25;1.80;;;4.20;99.90;;;;;;5090192;28;20036;-73
2021/01/28 11:16:52;;;;;;;4.40;2.08;;;4.20;99.90;;;;;;5068005;28;20050;-73
2021/01/28 11:19:20;;;;;;;3.40;1.80;;;4.20;99.90;;;;;;5085317;28;20024;-73
2021/01/28 11:21:49;;;;;;;4.50;2.10;;;4.30;99.90;;;;;;5089938;28;20461;-73
2021/01/28 11:24:14;;;;;;;4.22;2.05;;;4.40;99.90;;;;;;5087694;28;20062;-73
2021/01/28 11:26:40;;;;;;;3.05;1.60;;;4.40;99.90;;;;;;5089913;28;20031;-73
2021/01/28 11:29:06;;;;;;;2.35;1.50;;;4.40;99.90;;;;;;5086267;28;20024;-73
2021/01/28 11:31:33;;;;;;;3.53;1.70;;;4.50;99.90;;;;;;5072185;28;20059;-73
2021/01/28 11:33:58;;;;;;;4.35;1.80;;;4.50;99.90;;;;;;5074404;28;20065;-73
2021/01/28 11:36:26;;;;;;;2.22;1.30;;;4.60;99.90;;;;;;5092971;28;20015;-74
2021/01/28 11:38:52;;;;;;;1.58;1.05;;;4.60;99.90;;;;;;5059932;28;20051;-74
2021/01/28 11:41:18;;;;;;;1.48;1.00;;;4.60;99.90;;;;;;5088889;28;20028;-74
2021/01/28 11:43:46;;;;;;;2.33;1.15;;;4.70;99.90;;;;;;5088432;28;20559;-74
2021/01/28 11:46:14;;;;;;;3.33;1.60;;;4.80;99.90;;;;;;5089982;28;20018;-74
2021/01/28 11:48:40;;;;;;;1.90;1.10;;;4.90;99.90;;;;;;5090549;28;20027;-74
2021/01/28 11:51:05;;;;;;;1.35;1.00;;;4.90;99.90;;;;;;5088698;28;20039;-74
2021/01/28 11:53:31;;;;;;;1.38;0.93;;;4.90;99.90;;;;;;5090610;28;20403;-74
2021/01/28 11:55:59;;;;;;;1.15;0.90;;;5.00;99.90;;;;;;5086893;28;20044;-73
2021/01/28 11:58:27;;;;;;;2.08;1.02;;;5.10;99.90;;;;;;5087239;28;20634;-74
2021/01/28 12:00:53;;;;;;;1.15;0.80;;;5.10;99.90;;;;;;5088092;28;20032;-75
2021/01/28 12:03:23;;;;;;;1.48;0.95;;;5.20;99.90;;;;;;5085874;28;20036;-75
2021/01/28 12:05:49;;;;;;;1.00;0.90;;;5.20;99.90;;;;;;5080528;28;21163;-76
2021/01/28 12:08:15;;;;;;;0.70;0.70;;;5.30;99.90;;;;;;5087313;28;20070;-75
2021/01/28 12:10:42;;;;;;;0.70;0.70;;;5.30;99.90;;;;;;5085196;28;20457;-75
2021/01/28 12:13:10;;;;;;;1.48;0.95;;;5.40;99.90;;;;;;5085726;28;20024;-75
2021/01/28 12:15:36;;;;;;;0.82;0.80;;;5.40;99.90;;;;;;5091308;28;20135;-75
2021/01/28 12:18:04;;;;;;;0.90;0.60;;;5.40;99.90;;;;;;5087355;28;20219;-75
2021/01/28 12:20:30;;;;;;;1.13;0.90;;;5.50;99.90;;;;;;5085316;28;20476;-74
2021/01/28 12:22:58;;;;;;;1.20;0.90;;;5.50;99.90;;;;;;5087870;28;20032;-75
2021/01/28 12:25:24;;;;;;;1.10;0.80;;;5.60;99.90;;;;;;5085493;28;20040;-75
2021/01/28 12:27:50;;;;;;;0.70;0.70;;;5.60;99.90;;;;;;5089172;28;20029;-75
2021/01/28 12:30:22;;;;;;;0.80;0.70;;;5.70;99.90;;;;;;5081841;28;20035;-75
2021/01/28 12:32:50;;;;;;;1.23;0.90;;;5.70;99.90;;;;;;5083148;28;20057;-75
2021/01/28 12:35:19;;;;;;;0.60;0.60;;;5.70;99.90;;;;;;5088740;28;20031;-75
2021/01/28 12:37:47;;;;;;;1.15;0.90;;;5.70;99.90;;;;;;5087297;28;20558;-75
2021/01/28 12:40:16;;;;;;;1.33;0.80;;;5.60;99.90;;;;;;5086812;28;20020;-75
2021/01/28 12:42:47;;;;;;;1.73;1.00;;;5.60;99.90;;;;;;5088565;28;20458;-75
2021/01/28 12:45:15;;;;;;;1.02;0.80;;;5.60;99.90;;;;;;5076151;28;20035;-75
2021/01/28 12:47:41;;;;;;;1.08;0.90;;;5.60;99.90;;;;;;5069557;28;20035;-76
2021/01/28 12:50:09;;;;;;;2.05;1.27;;;5.60;99.90;;;;;;5090084;28;20032;-75
2021/01/28 12:52:36;;;;;;;2.58;1.30;;;5.60;99.90;;;;;;5090072;28;20540;-75
2021/01/28 12:55:02;;;;;;;2.38;1.30;;;5.50;99.90;;;;;;5062286;28;20028;-75
2021/01/28 12:57:30;;;;;;;1.92;1.20;;;5.50;99.90;;;;;;5077920;28;20016;-75
2021/01/28 13:00:00;;;;;;;1.15;1.05;;;5.60;99.90;;;;;;5088498;28;20060;-75
2021/01/28 13:02:26;;;;;;;2.00;1.25;;;5.50;99.90;;;;;;5088457;28;20667;-76
2021/01/28 13:04:54;;;;;;;1.73;1.20;;;5.50;99.90;;;;;;5090824;28;20029;-76
2021/01/28 13:07:20;;;;;;;9.85;5.32;;;5.50;99.90;;;;;;5085536;28;20028;-75